Time;durP1;ratioP1;P1;durP2;ratioP2;P2;SDS_P1;SDS_P2;PMS_P1;PMS_P2;Temp;Humidity;BMP_temperature;BMP_pressure;BME280_temperature;BME280_humidity;BME280_pressure;Samples;Min_cycle;Max_cycle;Signal;HPM_P1;HPM_P2
2024/03/16 00:01:29;;;;;;;3.67;1.00;;;;;;;12.37;100.00;98000.66;4187153;28;20734;-85
2024/03/16 00:03:33;;;;;;;2.50;1.00;;;;;;;12.38;100.00;97994.50;4182224;28;20637;-85
2024/03/16 00:05:36;;;;;;;2.37;1.17;;;;;;;12.42;100.00;97990.69;4169225;28;20626;-85
2024/03/16 00:07:40;;;;;;;4.33;1.30;;;;;;;12.40;100.00;97995.19;4182656;28;20621;-86
2024/03/16 00:09:44;;;;;;;2.30;1.10;;;;;;;12.40;100.00;97996.03;4154914;28;20612;-85
2024/03/16 00:11:47;;;;;;;4.27;1.47;;;;;;;12.43;100.00;98005.41;4169455;28;20663;-86
2024/03/16 00:13:50;;;;;;;2.23;1.30;;;;;;;12.43;100.00;98003.66;4152916;28;20638;-85
2024/03/16 00:15:53;;;;;;;2.57;1.23;;;;;;;12.41;100.00;98002.09;4186165;28;20663;-85
2024/03/16 00:17:56;;;;;;;2.37;1.10;;;;;;;12.43;99.83;98005.41;4168504;28;20695;-85
2024/03/16 00:20:00;;;;;;;2.37;1.20;;;;;;;12.44;100.00;98002.69;4187315;28;21063;-85
2024/03/16 00:22:03;;;;;;;5.20;1.07;;;;;;;12.47;99.38;97996.41;4187933;28;20677;-85
2024/03/16 00:24:08;;;;;;;2.53;1.10;;;;;;;12.48;100.00;97996.28;4181795;28;20620;-85
2024/03/16 00:26:11;;;;;;;2.63;1.20;;;;;;;12.48;99.78;97995.44;4172014;28;20676;-86
2024/03/16 00:28:14;;;;;;;3.13;1.10;;;;;;;12.46;100.00;97994.72;4187573;28;21204;-86
2024/03/16 00:30:19;;;;;;;2.13;1.00;;;;;;;12.43;99.46;97995.81;4170037;28;21134;-85
2024/03/16 00:32:22;;;;;;;3.20;1.20;;;;;;;12.42;99.26;97998.53;4185184;28;20663;-85
2024/03/16 00:34:26;;;;;;;2.03;0.90;;;;;;;12.45;99.37;98003.53;4173228;28;20625;-85
2024/03/16 00:36:30;;;;;;;1.90;1.00;;;;;;;12.48;100.00;98003.28;4181990;28;20727;-85
2024/03/16 00:38:35;;;;;;;2.27;1.30;;;;;;;12.49;100.00;98003.16;4156485;28;20668;-85
2024/03/16 00:40:38;;;;;;;3.20;1.17;;;;;;;12.48;100.00;98001.50;4170477;28;20753;-85
2024/03/16 00:42:42;;;;;;;2.43;1.10;;;;;;;12.47;100.00;98010.31;4150526;28;20646;-85
2024/03/16 00:44:46;;;;;;;2.30;1.53;;;;;;;12.50;100.00;98019.72;4183014;28;20687;-85
2024/03/16 00:46:49;;;;;;;2.00;1.20;;;;;;;12.51;100.00;98013.50;4168995;28;21082;-85
2024/03/16 00:48:52;;;;;;;2.20;1.43;;;;;;;12.51;100.00;98014.34;4166848;28;20636;-85
2024/03/16 00:50:56;;;;;;;2.90;1.60;;;;;;;12.53;100.00;98011.63;4185792;28;20624;-86
2024/03/16 00:52:59;;;;;;;3.43;1.30;;;;;;;12.54;100.00;98021.13;4154808;28;20632;-86
2024/03/16 00:55:04;;;;;;;3.70;1.20;;;;;;;12.52;100.00;98016.00;4167987;28;20668;-85
2024/03/16 00:57:08;;;;;;;4.67;1.00;;;;;;;12.53;100.00;98006.38;4186410;28;21104;-86
2024/03/16 00:59:11;;;;;;;2.63;1.20;;;;;;;12.53;100.00;98001.97;4167421;28;20619;-87
2024/03/16 01:01:15;;;;;;;2.77;1.27;;;;;;;12.53;99.36;98001.16;4170137;28;21320;-85
2024/03/16 01:03:19;;;;;;;3.80;1.10;;;;;;;12.53;100.00;98009.81;4189029;28;20676;-85
2024/03/16 01:05:26;;;;;;;2.07;0.87;;;;;;;12.50;100.00;98006.63;4168653;28;20678;-85
2024/03/16 01:07:29;;;;;;;2.40;0.90;;;;;;;12.51;100.00;98008.28;4153982;28;21091;-86
2024/03/16 01:09:33;;;;;;;1.80;0.80;;;;;;;12.50;99.86;98010.06;4185381;28;20995;-85
2024/03/16 01:11:36;;;;;;;3.80;0.97;;;;;;;12.52;100.00;98009.94;4169872;28;20611;-86
2024/03/16 01:13:39;;;;;;;3.70;0.90;;;;;;;12.53;99.30;98022.09;4168608;28;20649;-86
2024/03/16 01:15:43;;;;;;;2.57;0.90;;;;;;;12.54;98.62;98013.25;4153608;28;20611;-85
2024/03/16 01:17:46;;;;;;;4.47;0.90;;;;;;;12.54;98.90;98018.50;4167215;28;20696;-85
2024/03/16 01:19:50;;;;;;;1.80;0.80;;;;;;;12.53;99.29;98015.06;4165055;28;20747;-86
2024/03/16 01:21:52;;;;;;;2.80;0.90;;;;;;;12.54;100.00;98011.50;4169760;28;21227;-86
2024/03/16 01:23:56;;;;;;;2.90;0.87;;;;;;;12.48;100.00;98016.34;4185972;28;20673;-86
2024/03/16 01:25:59;;;;;;;1.97;0.77;;;;;;;12.44;99.41;98007.91;4173204;28;20657;-85
2024/03/16 01:28:02;;;;;;;2.30;0.80;;;;;;;12.43;98.43;98001.03;4153341;28;21096;-85
2024/03/16 01:30:07;;;;;;;2.20;0.97;;;;;;;12.45;99.33;97999.13;4167604;28;20670;-85
2024/03/16 01:32:11;;;;;;;2.70;0.90;;;;;;;12.43;99.20;98005.41;4185079;28;21326;-85
2024/03/16 01:34:14;;;;;;;1.80;0.90;;;;;;;12.43;98.34;98008.03;4184789;28;20736;-85
2024/03/16 01:36:17;;;;;;;2.50;0.80;;;;;;;12.45;99.69;98011.38;4186275;28;20666;-85
2024/03/16 01:38:21;;;;;;;3.30;2.40;;;;;;;12.42;99.18;98004.59;4186014;28;20723;-86
2024/03/16 01:40:25;;;;;;;1.83;0.73;;;;;;;12.40;98.55;98003.03;4180162;28;21325;-85
2024/03/16 01:42:28;;;;;;;2.17;0.93;;;;;;;12.39;97.87;98004.84;4187411;28;20682;-85
2024/03/16 01:44:31;;;;;;;2.43;1.37;;;;;;;12.40;99.28;97996.03;4180459;28;20625;-85
2024/03/16 01:46:34;;;;;;;1.50;0.60;;;;;;;12.41;98.69;97995.06;4169732;28;20633;-85
2024/03/16 01:48:37;;;;;;;1.83;0.80;;;;;;;12.39;98.86;97993.56;4168073;28;20659;-84
2024/03/16 01:50:40;;;;;;;1.73;0.57;;;;;;;12.39;96.82;98004.00;4167965;28;20626;-85
2024/03/16 01:52:44;;;;;;;1.30;0.40;;;;;;;12.42;96.83;98006.41;4180023;28;20624;-85
2024/03/16 01:54:48;;;;;;;1.60;0.70;;;;;;;12.39;97.91;97991.75;4161210;28;21392;-85
2024/03/16 01:56:51;;;;;;;1.83;0.80;;;;;;;12.37;97.85;97993.66;4184929;28;20629;-86
2024/03/16 01:58:53;;;;;;;1.30;0.50;;;;;;;12.37;97.30;98003.28;4186785;28;21178;-85
2024/03/16 02:00:56;;;;;;;1.47;0.53;;;;;;;12.38;96.97;98003.16;4166674;28;20711;-85
2024/03/16 02:03:00;;;;;;;1.83;0.70;;;;;;;12.38;97.47;97997.94;4186744;28;20624;-85
2024/03/16 02:05:03;;;;;;;2.60;0.83;;;;;;;12.39;96.88;97998.78;4156899;28;21285;-86
2024/03/16 02:07:08;;;;;;;1.60;0.50;;;;;;;12.39;97.76;97991.75;4179991;28;20732;-85
2024/03/16 02:09:12;;;;;;;1.70;0.70;;;;;;;12.39;97.99;97997.00;4168724;28;20627;-85
2024/03/16 02:11:16;;;;;;;1.33;0.47;;;;;;;12.39;97.68;97993.56;4188998;28;20941;-81
2024/03/16 02:13:18;;;;;;;1.77;0.80;;;;;;;12.40;97.61;97997.81;4189812;28;20755;-82
2024/03/16 02:15:22;;;;;;;1.83;0.70;;;;;;;12.41;97.50;97986.41;4171003;28;20674;-82
2024/03/16 02:17:25;;;;;;;2.33;0.70;;;;;;;12.39;97.67;97983.09;4200947;28;20619;-82
2024/03/16 02:19:31;;;;;;;1.70;0.60;;;;;;;12.41;98.23;97995.06;4174221;28;20984;-82
2024/03/16 02:21:37;;;;;;;2.00;0.70;;;;;;;12.35;95.94;97998.16;4159529;28;20661;-81
2024/03/16 02:23:39;;;;;;;1.60;0.57;;;;;;;12.35;96.21;97987.69;4155842;28;20629;-81
2024/03/16 02:25:44;;;;;;;1.80;0.73;;;;;;;12.36;96.86;97993.78;4207420;28;20727;-82
2024/03/16 02:27:47;;;;;;;1.57;0.50;;;;;;;12.34;98.06;97990.44;4187494;28;21034;-81
2024/03/16 02:29:50;;;;;;;1.60;0.60;;;;;;;12.34;96.35;97985.19;4171395;28;21286;-81
2024/03/16 02:31:53;;;;;;;2.07;0.80;;;;;;;12.35;97.69;97986.88;4172282;28;20700;-81
2024/03/16 02:33:58;;;;;;;2.03;0.70;;;;;;;12.35;98.32;97989.50;4172816;28;20628;-82
2024/03/16 02:36:03;;;;;;;1.90;0.70;;;;;;;12.34;96.53;97988.69;4187043;28;21014;-81
2024/03/16 02:38:07;;;;;;;1.70;0.70;;;;;;;12.34;98.23;98000.91;4172690;28;20660;-81
2024/03/16 02:40:11;;;;;;;1.40;0.50;;;;;;;12.34;98.14;97995.66;4172927;28;21217;-82
2024/03/16 02:42:16;;;;;;;1.60;0.57;;;;;;;12.29;97.93;97995.19;4174052;28;20649;-82
2024/03/16 02:44:20;;;;;;;1.67;0.50;;;;;;;12.27;96.42;97989.25;4168131;28;21029;-81
2024/03/16 02:46:23;;;;;;;2.20;0.57;;;;;;;12.25;97.01;97991.13;4187993;28;20615;-81
2024/03/16 02:48:26;;;;;;;1.47;0.50;;;;;;;12.23;96.86;97983.41;4184728;28;20657;-82
2024/03/16 02:50:32;;;;;;;2.60;0.70;;;;;;;12.22;97.67;97980.91;4191368;28;21229;-82
2024/03/16 02:52:35;;;;;;;1.83;0.60;;;;;;;12.23;97.50;97988.63;4172382;28;20637;-83
2024/03/16 02:54:38;;;;;;;1.47;0.60;;;;;;;12.22;97.94;97980.91;4156698;28;20968;-82
2024/03/16 02:56:42;;;;;;;1.47;0.50;;;;;;;12.18;97.21;97979.50;4186420;28;20635;-81
2024/03/16 02:58:44;;;;;;;2.40;0.70;;;;;;;12.18;98.26;97976.88;4171368;28;21221;-82
2024/03/16 03:00:48;;;;;;;2.97;1.17;;;;;;;12.19;98.10;97985.56;4156174;28;20625;-81
2024/03/16 03:02:52;;;;;;;1.40;0.57;;;;;;;12.19;98.32;97982.94;4176506;28;21081;-82
2024/03/16 03:04:54;;;;;;;2.17;0.80;;;;;;;12.19;97.75;97982.94;4172806;28;20706;-81
2024/03/16 03:06:58;;;;;;;1.70;0.50;;;;;;;12.17;98.21;97980.44;4184992;28;21388;-81
2024/03/16 03:09:01;;;;;;;1.60;0.60;;;;;;;12.17;97.22;97974.38;4189925;28;21212;-82
2024/03/16 03:11:04;;;;;;;2.60;0.60;;;;;;;12.16;98.50;97994.44;4206434;28;20621;-82
2024/03/16 03:13:08;;;;;;;1.50;0.60;;;;;;;12.14;97.14;97980.66;4156219;28;20725;-82
2024/03/16 03:15:13;;;;;;;1.40;0.50;;;;;;;12.12;98.85;97987.81;4184036;28;20664;-82
2024/03/16 03:17:16;;;;;;;1.90;0.60;;;;;;;12.15;98.03;97982.34;4170460;28;20687;-81
2024/03/16 03:19:19;;;;;;;1.30;0.50;;;;;;;12.18;96.96;97976.03;4167202;28;20620;-81
2024/03/16 03:21:23;;;;;;;2.13;0.70;;;;;;;12.16;98.02;97984.00;4185093;28;20657;-86
2024/03/16 03:23:25;;;;;;;2.47;0.70;;;;;;;12.14;97.24;97982.47;4170240;28;20747;-86
2024/03/16 03:25:30;;;;;;;2.47;0.60;;;;;;;12.13;95.87;97980.78;4184008;28;20623;-85
2024/03/16 03:27:38;;;;;;;2.27;0.93;;;;;;;12.11;98.61;97975.69;4188839;28;20624;-85
2024/03/16 03:29:41;;;;;;;2.50;1.00;;;;;;;12.09;97.35;97974.13;4187130;28;20685;-86
2024/03/16 03:31:43;;;;;;;1.70;0.80;;;;;;;12.06;98.31;97983.03;4154611;28;20615;-86
2024/03/16 03:33:46;;;;;;;2.13;0.70;;;;;;;12.06;98.20;97993.50;4150649;28;20680;-86
2024/03/16 03:35:50;;;;;;;1.73;0.70;;;;;;;12.05;96.93;97983.97;4171875;28;20646;-86
2024/03/16 03:37:53;;;;;;;5.03;0.77;;;;;;;12.05;98.74;97988.38;4186954;28;20628;-85
2024/03/16 03:39:57;;;;;;;2.63;0.73;;;;;;;12.04;98.44;97998.03;4184744;28;21077;-86
2024/03/16 03:42:00;;;;;;;2.60;0.90;;;;;;;12.08;98.72;98003.84;4188625;28;20646;-87
2024/03/16 03:44:20;;;;;;;1.87;0.70;;;;;;;12.09;97.89;98011.56;4167862;28;20617;-85
2024/03/16 03:46:39;;;;;;;3.10;1.03;;;;;;;12.08;99.22;98014.31;4185658;28;21343;-85
2024/03/16 03:48:49;;;;;;;1.73;0.70;;;;;;;12.03;98.76;98022.50;4190108;28;20720;-85
2024/03/16 03:50:53;;;;;;;2.10;0.50;;;;;;;12.00;99.04;98021.91;4174381;28;20616;-85
2024/03/16 03:52:59;;;;;;;1.60;0.70;;;;;;;11.97;99.24;98027.34;4150622;28;20661;-85
2024/03/16 03:55:02;;;;;;;2.23;0.80;;;;;;;11.97;100.00;98038.63;4191612;28;20716;-85
2024/03/16 03:57:06;;;;;;;2.90;1.00;;;;;;;11.89;100.00;98040.13;4181212;28;20655;-86
2024/03/16 03:59:09;;;;;;;4.83;0.97;;;;;;;11.87;100.00;98040.25;4183690;28;20669;-85
2024/03/16 04:01:12;;;;;;;3.97;0.60;;;;;;;11.90;100.00;98044.41;4156170;28;20652;-85
2024/03/16 04:03:15;;;;;;;1.70;0.83;;;;;;;11.90;100.00;98047.84;4188224;28;20631;-86
2024/03/16 04:05:19;;;;;;;2.10;0.80;;;;;;;11.92;100.00;98050.34;4195265;28;20626;-85
2024/03/16 04:07:22;;;;;;;2.67;0.80;;;;;;;11.94;100.00;98051.91;4150057;28;20653;-85
2024/03/16 04:09:27;;;;;;;2.20;0.90;;;;;;;11.93;100.00;98047.63;4199533;28;20753;-85
2024/03/16 04:11:31;;;;;;;1.80;0.70;;;;;;;11.91;100.00;98041.69;4172196;28;20672;-86
2024/03/16 04:13:34;;;;;;;2.40;0.83;;;;;;;11.85;100.00;98036.94;4187483;28;20982;-85
2024/03/16 04:15:37;;;;;;;2.10;0.90;;;;;;;11.81;100.00;98026.81;4169753;28;20633;-86
2024/03/16 04:17:42;;;;;;;2.47;0.80;;;;;;;11.71;100.00;98031.03;4186684;28;20659;-86
2024/03/16 04:19:46;;;;;;;2.60;0.93;;;;;;;11.64;100.00;98042.91;4188839;28;20643;-85
2024/03/16 04:21:51;;;;;;;1.80;0.80;;;;;;;11.63;100.00;98041.22;4166749;28;20740;-85
2024/03/16 04:23:54;;;;;;;1.73;0.80;;;;;;;11.66;100.00;98053.25;4201122;28;20714;-86
2024/03/16 04:25:58;;;;;;;5.60;0.80;;;;;;;11.70;100.00;98057.28;4169618;28;21119;-87
2024/03/16 04:28:00;;;;;;;2.27;0.60;;;;;;;11.74;100.00;98063.94;4165652;28;20676;-87
2024/03/16 04:30:04;;;;;;;1.77;0.70;;;;;;;11.77;100.00;98068.03;4167558;28;20632;-85
2024/03/16 04:32:09;;;;;;;1.83;0.87;;;;;;;11.83;100.00;98066.72;4156953;28;21190;-86
2024/03/16 04:34:12;;;;;;;1.70;0.83;;;;;;;11.86;100.00;98069.97;4167463;28;20629;-85
2024/03/16 04:36:16;;;;;;;2.07;0.83;;;;;;;11.90;100.00;98070.56;4153918;28;20683;-85
2024/03/16 04:38:18;;;;;;;2.43;0.70;;;;;;;11.92;100.00;98073.88;4171101;28;20620;-85
2024/03/16 04:40:22;;;;;;;2.93;0.90;;;;;;;11.93;100.00;98071.16;4150771;28;20696;-86
2024/03/16 04:42:24;;;;;;;2.77;1.10;;;;;;;11.92;100.00;98074.75;4181496;28;20650;-85
2024/03/16 04:44:28;;;;;;;2.27;0.77;;;;;;;11.93;100.00;98071.16;4203035;28;21213;-85
2024/03/16 04:46:33;;;;;;;1.73;0.77;;;;;;;11.91;100.00;98080.91;4172354;28;20699;-85
2024/03/16 04:48:37;;;;;;;2.50;1.00;;;;;;;11.87;100.00;98078.63;4186837;28;20677;-85
2024/03/16 04:50:40;;;;;;;5.63;0.90;;;;;;;11.83;100.00;98072.78;4170202;28;21281;-85
2024/03/16 04:52:44;;;;;;;1.43;0.57;;;;;;;11.80;100.00;98074.78;4186545;28;20727;-86
2024/03/16 04:54:47;;;;;;;2.50;1.00;;;;;;;11.81;100.00;98072.06;4184206;28;20719;-85
2024/03/16 04:56:49;;;;;;;2.40;1.00;;;;;;;11.83;100.00;98070.19;4181778;28;20628;-85
2024/03/16 04:58:53;;;;;;;2.60;1.00;;;;;;;11.81;100.00;98072.06;4183706;28;20637;-86
2024/03/16 05:00:59;;;;;;;2.20;0.80;;;;;;;11.76;100.00;98075.97;4187798;28;20670;-86
2024/03/16 05:03:02;;;;;;;1.90;0.90;;;;;;;11.71;100.00;98077.25;4172977;28;20643;-86
2024/03/16 05:05:07;;;;;;;1.47;0.67;;;;;;;11.73;100.00;98077.94;4171748;28;20629;-86
2024/03/16 05:07:11;;;;;;;1.60;0.80;;;;;;;11.58;100.00;98066.84;4185691;28;21273;-86
2024/03/16 05:09:13;;;;;;;1.50;0.80;;;;;;;11.56;100.00;98073.13;4170847;28;20633;-86
2024/03/16 05:11:16;;;;;;;1.60;0.83;;;;;;;11.56;100.00;98067.91;4169593;28;21485;-85
2024/03/16 05:13:19;;;;;;;2.40;0.97;;;;;;;11.57;100.00;98077.41;4184363;28;20669;-86
2024/03/16 05:15:22;;;;;;;2.53;0.93;;;;;;;11.57;100.00;98080.84;4181219;28;20636;-86
2024/03/16 05:17:25;;;;;;;2.83;1.03;;;;;;;11.58;100.00;98081.72;4167523;28;21199;-85
2024/03/16 05:19:29;;;;;;;2.50;1.23;;;;;;;11.61;100.00;98078.88;4189383;28;20624;-86
2024/03/16 05:21:32;;;;;;;2.50;1.20;;;;;;;11.65;100.00;98083.75;4169742;28;20714;-85
2024/03/16 05:23:36;;;;;;;2.93;1.10;;;;;;;11.69;100.00;98090.41;4166025;28;20713;-86
2024/03/16 05:25:40;;;;;;;3.03;1.20;;;;;;;11.73;100.00;98091.00;4183189;28;21082;-85
2024/03/16 05:27:44;;;;;;;2.83;1.03;;;;;;;11.74;100.00;98092.69;4169781;28;21026;-85
2024/03/16 05:29:46;;;;;;;2.70;1.13;;;;;;;11.76;100.00;98089.84;4169880;28;20626;-85
2024/03/16 05:31:56;;;;;;;4.70;1.10;;;;;;;11.77;100.00;98088.94;4182290;28;21258;-85
2024/03/16 05:34:00;;;;;;;3.93;1.50;;;;;;;11.80;100.00;98095.69;4185706;28;20628;-86
2024/03/16 05:36:05;;;;;;;3.20;1.10;;;;;;;11.80;100.00;98101.75;4169448;28;21064;-86
2024/03/16 05:38:08;;;;;;;2.43;0.87;;;;;;;11.81;100.00;98097.38;4163603;28;20698;-86
2024/03/16 05:40:11;;;;;;;2.83;1.10;;;;;;;11.83;100.00;98100.69;4173807;28;20644;-86
2024/03/16 05:42:16;;;;;;;4.23;1.53;;;;;;;11.86;100.00;98103.06;4172310;28;20629;-82
2024/03/16 05:44:19;;;;;;;1.90;0.90;;;;;;;11.88;100.00;98106.44;4187993;28;21591;-81
2024/03/16 05:46:22;;;;;;;2.47;1.10;;;;;;;11.91;100.00;98103.59;4168545;28;20635;-82
2024/03/16 05:48:25;;;;;;;2.63;1.00;;;;;;;11.93;100.00;98110.34;4154538;28;20664;-81
2024/03/16 05:50:29;;;;;;;3.70;1.20;;;;;;;11.93;100.00;98115.59;4187124;28;20623;-82
2024/03/16 05:52:33;;;;;;;3.73;1.27;;;;;;;11.95;100.00;98115.47;4157457;28;20637;-81
2024/03/16 05:54:36;;;;;;;2.00;1.10;;;;;;;11.94;100.00;98119.88;4202146;28;20621;-82
2024/03/16 05:56:40;;;;;;;3.73;1.30;;;;;;;11.95;100.00;98124.16;4172208;28;20625;-81
2024/03/16 05:58:43;;;;;;;3.57;1.20;;;;;;;11.99;100.00;98130.00;4158515;28;20632;-81
2024/03/16 06:00:46;;;;;;;2.17;1.00;;;;;;;12.02;100.00;98130.59;4190504;28;20729;-81
2024/03/16 06:02:49;;;;;;;3.10;1.30;;;;;;;12.03;100.00;98131.44;4170510;28;20665;-81
2024/03/16 06:04:53;;;;;;;5.33;1.43;;;;;;;12.03;100.00;98134.06;4171216;28;20693;-81
2024/03/16 06:06:56;;;;;;;2.00;0.93;;;;;;;12.04;100.00;98138.31;4187157;28;20662;-81
2024/03/16 06:08:59;;;;;;;2.47;1.20;;;;;;;12.07;100.00;98138.97;4169814;28;20676;-82
2024/03/16 06:11:03;;;;;;;2.73;1.13;;;;;;;12.10;100.00;98143.94;4173905;28;20617;-82
2024/03/16 06:13:10;;;;;;;3.63;1.10;;;;;;;12.13;100.00;98143.69;4189099;28;20616;-81
2024/03/16 06:15:14;;;;;;;2.43;1.10;;;;;;;12.16;100.00;98151.31;4170290;28;21361;-82
2024/03/16 06:17:17;;;;;;;3.80;1.63;;;;;;;12.19;100.00;98156.31;4188111;28;20642;-82
2024/03/16 06:19:21;;;;;;;2.00;1.50;;;;;;;12.23;100.00;98157.78;4189623;28;20623;-82
2024/03/16 06:21:24;;;;;;;3.67;2.00;;;;;;;12.27;100.00;98157.44;4174324;28;20652;-82
2024/03/16 06:23:27;;;;;;;3.70;2.37;;;;;;;12.27;100.00;98154.81;4190239;28;20651;-83
2024/03/16 06:25:35;;;;;;;3.23;2.43;;;;;;;12.32;100.00;98154.47;4183309;28;21319;-81
2024/03/16 06:27:49;;;;;;;2.93;1.30;;;;;;;12.32;100.00;98151.88;4155533;28;20662;-82
2024/03/16 06:29:55;;;;;;;3.77;1.63;;;;;;;12.35;100.00;98156.88;4171862;28;20611;-82
2024/03/16 06:32:05;;;;;;;3.27;1.40;;;;;;;12.38;100.00;98160.09;4189317;28;20615;-81
2024/03/16 06:34:08;;;;;;;2.70;1.07;;;;;;;12.41;100.00;98153.81;4173758;28;21676;-81
2024/03/16 06:36:12;;;;;;;3.40;1.00;;;;;;;12.44;100.00;98166.66;4155884;28;20621;-81
2024/03/16 06:38:15;;;;;;;2.40;0.83;;;;;;;12.44;100.00;98167.47;4189342;28;20660;-81
2024/03/16 06:40:20;;;;;;;2.90;0.90;;;;;;;12.44;100.00;98174.50;4172599;28;20702;-80
2024/03/16 06:42:24;;;;;;;2.13;0.83;;;;;;;12.45;100.00;98171.78;4191270;28;20635;-83
2024/03/16 06:44:27;;;;;;;2.63;1.20;;;;;;;12.44;100.00;98170.09;4169836;28;20686;-82
2024/03/16 06:46:31;;;;;;;3.60;1.70;;;;;;;12.42;100.00;98172.00;4172292;28;20628;-82
2024/03/16 06:48:35;;;;;;;2.60;1.10;;;;;;;12.42;100.00;98181.63;4169015;28;20618;-82
2024/03/16 06:50:40;;;;;;;4.93;1.30;;;;;;;12.42;100.00;98177.22;4174145;28;20632;-82
2024/03/16 06:52:44;;;;;;;4.03;1.73;;;;;;;12.44;100.00;98175.31;4190973;28;21209;-82
2024/03/16 06:54:51;;;;;;;2.93;1.10;;;;;;;12.47;100.00;98185.56;4171105;28;20732;-81
2024/03/16 06:56:54;;;;;;;2.40;1.10;;;;;;;12.50;100.00;98184.50;4186968;28;20619;-82
2024/03/16 06:58:57;;;;;;;2.43;0.97;;;;;;;12.50;100.00;98192.34;4170014;28;20634;-82
2024/03/16 07:01:00;;;;;;;2.30;1.23;;;;;;;12.48;100.00;98195.09;4187270;28;20635;-82
2024/03/16 07:03:04;;;;;;;1.50;0.90;;;;;;;12.51;100.00;98194.00;4176557;28;20660;-82
2024/03/16 07:05:09;;;;;;;3.13;1.30;;;;;;;12.52;100.00;98198.31;4173275;28;20637;-82
2024/03/16 07:07:12;;;;;;;2.87;1.50;;;;;;;12.52;100.00;98204.34;4187574;28;20655;-82
2024/03/16 07:09:18;;;;;;;2.57;1.20;;;;;;;12.54;100.00;98210.34;4189553;28;20631;-82
2024/03/16 07:11:22;;;;;;;3.03;1.40;;;;;;;12.58;100.00;98208.31;4185683;28;20711;-82
2024/03/16 07:13:25;;;;;;;2.30;1.30;;;;;;;12.61;100.00;98208.09;4156746;28;20620;-82
2024/03/16 07:15:28;;;;;;;4.40;2.70;;;;;;;12.65;100.00;98212.97;4205464;28;20694;-82
2024/03/16 07:17:32;;;;;;;5.20;2.73;;;;;;;12.68;100.00;98215.38;4170504;28;21001;-82
2024/03/16 07:19:35;;;;;;;4.20;1.63;;;;;;;12.69;100.00;98212.63;4188163;28;20639;-84
2024/03/16 07:21:39;;;;;;;2.77;1.30;;;;;;;12.73;100.00;98218.47;4174633;28;21198;-84
2024/03/16 07:23:43;;;;;;;3.53;2.03;;;;;;;12.74;100.00;98226.19;4169630;28;20649;-83
2024/03/16 07:25:50;;;;;;;7.27;2.73;;;;;;;12.80;100.00;98222.31;4175235;28;20628;-82
2024/03/16 07:27:53;;;;;;;3.63;2.20;;;;;;;12.83;100.00;98227.34;4175454;28;20625;-82
2024/03/16 07:29:56;;;;;;;4.70;1.83;;;;;;;12.84;100.00;98232.47;4175025;28;21213;-82
2024/03/16 07:31:59;;;;;;;3.53;1.60;;;;;;;12.86;100.00;98243.63;4166592;28;20622;-82
2024/03/16 07:34:03;;;;;;;3.73;1.73;;;;;;;12.87;100.00;98242.69;4188496;28;20691;-82
2024/03/16 07:36:08;;;;;;;2.40;1.20;;;;;;;12.77;99.46;98236.44;4188809;28;20651;-81
2024/03/16 07:38:11;;;;;;;3.07;1.10;;;;;;;12.65;100.00;98246.16;4171996;28;21213;-82
2024/03/16 07:40:15;;;;;;;1.50;0.70;;;;;;;12.58;100.00;98239.72;4189138;28;20639;-82
2024/03/16 07:42:19;;;;;;;2.20;0.83;;;;;;;12.48;100.00;98233.47;4158502;28;20665;-81
2024/03/16 07:44:23;;;;;;;2.97;0.90;;;;;;;12.39;100.00;98244.63;4183614;28;20646;-81
2024/03/16 07:46:26;;;;;;;3.40;1.00;;;;;;;12.31;100.00;98242.59;4189142;28;20614;-82
2024/03/16 07:48:29;;;;;;;1.70;0.80;;;;;;;12.26;100.00;98249.06;4187551;28;20662;-81
2024/03/16 07:50:32;;;;;;;3.17;1.00;;;;;;;12.13;100.00;98252.69;4171206;28;20625;-81
2024/03/16 07:52:36;;;;;;;4.37;1.20;;;;;;;12.19;100.00;98250.44;4166917;28;20640;-82
2024/03/16 07:54:40;;;;;;;4.53;1.03;;;;;;;12.20;100.00;98259.16;4156540;28;20712;-82
2024/03/16 07:56:45;;;;;;;2.63;1.27;;;;;;;12.20;100.00;98253.94;4177767;28;20637;-82
2024/03/16 07:58:52;;;;;;;2.50;0.97;;;;;;;12.24;100.00;98264.06;4203604;28;21048;-81
2024/03/16 08:00:56;;;;;;;3.47;0.97;;;;;;;12.30;100.00;98268.84;4186972;28;20625;-80
2024/03/16 08:03:00;;;;;;;2.40;0.90;;;;;;;12.31;100.00;98273.09;4155359;28;20647;-82
2024/03/16 08:05:04;;;;;;;1.80;1.00;;;;;;;12.30;100.00;98276.69;4173558;28;20661;-82
2024/03/16 08:07:07;;;;;;;3.40;0.70;;;;;;;12.34;100.00;98268.50;4185397;28;20686;-82
2024/03/16 08:09:13;;;;;;;2.10;0.97;;;;;;;12.45;100.00;98272.97;4171093;28;20633;-82
2024/03/16 08:11:16;;;;;;;3.20;0.70;;;;;;;12.48;100.00;98272.72;4172269;28;21017;-83
2024/03/16 08:13:19;;;;;;;2.90;0.80;;;;;;;12.56;100.00;98271.22;4152686;28;20621;-83
2024/03/16 08:15:22;;;;;;;2.30;0.80;;;;;;;12.61;100.00;98276.13;4153919;28;20684;-83
2024/03/16 08:17:25;;;;;;;1.97;0.70;;;;;;;12.67;100.00;98279.09;4167812;28;21069;-82
2024/03/16 08:19:28;;;;;;;2.47;0.90;;;;;;;12.72;100.00;98293.53;4190058;28;20701;-82
2024/03/16 08:21:32;;;;;;;3.10;1.17;;;;;;;12.73;100.00;98286.50;4170055;28;20746;-82
2024/03/16 08:23:36;;;;;;;2.53;0.90;;;;;;;12.81;100.00;98302.50;4187768;28;20727;-81
2024/03/16 08:25:41;;;;;;;2.40;0.87;;;;;;;12.84;100.00;98304.94;4187127;28;20659;-81
2024/03/16 08:27:45;;;;;;;3.13;1.07;;;;;;;12.86;100.00;98308.25;4169135;28;20618;-80
2024/03/16 08:29:48;;;;;;;3.93;0.60;;;;;;;12.87;100.00;98300.28;4152719;28;21445;-80
2024/03/16 08:31:52;;;;;;;2.50;0.90;;;;;;;12.91;100.00;98308.75;4200661;28;20662;-81
2024/03/16 08:33:54;;;;;;;2.00;1.00;;;;;;;12.89;100.00;98308.03;4155039;28;20661;-80
2024/03/16 08:35:57;;;;;;;2.80;0.90;;;;;;;12.92;100.00;98308.63;4169785;28;20675;-81
2024/03/16 08:38:02;;;;;;;3.20;0.93;;;;;;;12.89;100.00;98302.78;4187727;28;20609;-79
2024/03/16 08:40:11;;;;;;;2.07;0.97;;;;;;;12.84;100.00;98308.38;4187862;28;20651;-80
2024/03/16 08:42:15;;;;;;;2.70;0.80;;;;;;;12.78;100.00;98305.34;4159816;28;20622;-80
2024/03/16 08:44:18;;;;;;;2.33;0.80;;;;;;;12.81;100.00;98308.56;4189388;28;20660;-79
2024/03/16 08:46:22;;;;;;;3.93;1.50;;;;;;;12.78;100.00;98306.16;4174819;28;21034;-80
2024/03/16 08:48:29;;;;;;;2.63;1.20;;;;;;;12.71;100.00;98310.19;4191881;28;20621;-80
2024/03/16 08:50:34;;;;;;;2.90;0.83;;;;;;;12.77;100.00;98307.09;4157288;28;20626;-80
2024/03/16 08:52:38;;;;;;;2.80;1.20;;;;;;;12.84;100.00;98304.94;4191309;28;20625;-81
2024/03/16 08:54:42;;;;;;;3.47;1.17;;;;;;;12.83;100.00;98304.06;4186875;28;20715;-81
2024/03/16 08:56:46;;;;;;;3.33;1.00;;;;;;;12.89;100.00;98308.84;4183437;28;21059;-82
2024/03/16 08:58:51;;;;;;;3.97;1.10;;;;;;;12.88;100.00;98316.81;4150852;28;21199;-80
2024/03/16 09:00:58;;;;;;;3.00;1.00;;;;;;;12.83;100.00;98311.94;4173763;28;20727;-82
2024/03/16 09:03:02;;;;;;;2.27;0.90;;;;;;;12.72;100.00;98316.25;4188802;28;20723;-81
2024/03/16 09:05:08;;;;;;;5.13;2.87;;;;;;;12.65;100.00;98314.22;4186004;28;20660;-80
2024/03/16 09:07:12;;;;;;;6.10;2.50;;;;;;;12.68;100.00;98320.88;4188942;28;20656;-81
2024/03/16 09:09:16;;;;;;;3.17;1.53;;;;;;;12.76;100.00;98322.91;4185398;28;20627;-80
2024/03/16 09:11:19;;;;;;;2.87;1.10;;;;;;;12.92;100.00;98328.75;4167229;28;20634;-80
2024/03/16 09:13:22;;;;;;;5.47;1.90;;;;;;;13.08;100.00;98337.13;4165479;28;20763;-81
2024/03/16 09:15:25;;;;;;;3.50;1.10;;;;;;;13.13;100.00;98338.47;4168635;28;20662;-80
2024/03/16 09:17:29;;;;;;;2.07;1.20;;;;;;;13.27;100.00;98346.94;4187593;28;20620;-81
2024/03/16 09:19:36;;;;;;;4.17;1.03;;;;;;;13.46;100.00;98351.66;4157673;28;20627;-80
2024/03/16 09:21:39;;;;;;;2.73;0.90;;;;;;;13.54;100.00;98344.03;4168750;28;20651;-80
2024/03/16 09:23:42;;;;;;;2.10;1.00;;;;;;;13.53;100.00;98347.59;4181711;28;20631;-81
2024/03/16 09:25:45;;;;;;;5.60;1.33;;;;;;;13.51;100.00;98344.28;4168061;28;20645;-81
2024/03/16 09:27:51;;;;;;;4.03;1.40;;;;;;;13.56;100.00;98353.47;4157297;28;20635;-81
2024/03/16 09:29:54;;;;;;;3.30;1.13;;;;;;;13.64;100.00;98350.25;4187756;28;20631;-81
2024/03/16 09:31:57;;;;;;;4.60;1.40;;;;;;;13.63;99.17;98345.97;4169919;28;20657;-81
2024/03/16 09:34:01;;;;;;;4.20;1.40;;;;;;;13.68;99.64;98344.63;4171719;28;20626;-81
2024/03/16 09:36:06;;;;;;;4.03;1.77;;;;;;;13.74;99.21;98357.28;4173281;28;21135;-81
2024/03/16 09:38:10;;;;;;;3.57;1.30;;;;;;;13.80;99.32;98357.66;4173089;28;21212;-82